Time;durP1;ratioP1;P1;durP2;ratioP2;P2;SDS_P1;SDS_P2;PMS_P1;PMS_P2;Temp;Humidity;BMP_temperature;BMP_pressure;BME280_temperature;BME280_humidity;BME280_pressure;Samples;Min_cycle;Max_cycle;Signal;HPM_P1;HPM_P2
2022/06/06 00:01:19;;;;;;;16.65;4.00;;;;;;;;;;5032353;28;20045;-81
2022/06/06 00:04:04;;;;;;;14.02;3.85;;;;;;;;;;5054502;28;20045;-82
2022/06/06 00:06:52;;;;;;;12.70;3.67;;;;;;;;;;5054540;28;20045;-82
2022/06/06 00:09:37;;;;;;;10.98;4.15;;;;;;;;;;5040750;28;20390;-82
2022/06/06 00:12:23;;;;;;;11.98;4.43;;;;;;;;;;5055266;28;20044;-81
2022/06/06 00:15:11;;;;;;;16.20;4.65;;;;;;;;;;5055248;28;20045;-83
2022/06/06 00:18:09;;;;;;;19.60;4.43;;;;;;;;;;5062172;28;20040;-83
2022/06/06 00:20:57;;;;;;;14.70;4.13;;;;;;;;;;5047043;28;20052;-83
2022/06/06 00:23:42;;;;;;;14.25;3.90;;;;;;;;;;5032729;28;20041;-84
2022/06/06 00:26:28;;;;;;;17.20;3.92;;;;;;;;;;5040387;28;20037;-82
2022/06/06 00:29:16;;;;;;;16.70;4.70;;;;;;;;;;5032801;28;20041;-81
2022/06/06 00:35:08;;;;;;;16.25;4.45;;;;;;;;;;5046799;28;20041;-83
2022/06/06 00:37:55;;;;;;;16.05;4.60;;;;;;;;;;5032599;28;20041;-83
2022/06/06 00:40:41;;;;;;;16.90;4.88;;;;;;;;;;5040090;28;20049;-84
2022/06/06 00:43:27;;;;;;;14.43;4.50;;;;;;;;;;5032753;28;20037;-84
2022/06/06 00:46:19;;;;;;;15.75;4.43;;;;;;;;;;5033587;28;20371;-82
2022/06/06 00:49:09;;;;;;;13.82;5.20;;;;;;;;;;5032242;28;20053;-83
2022/06/06 00:51:56;;;;;;;16.13;5.88;;;;;;;;;;5054892;28;20045;-83
2022/06/06 00:54:44;;;;;;;14.10;4.65;;;;;;;;;;5054903;28;20041;-83
2022/06/06 00:57:34;;;;;;;23.85;5.68;;;;;;;;;;5031864;28;20041;-83
2022/06/06 01:00:20;;;;;;;15.65;4.68;;;;;;;;;;5032449;28;20052;-83
2022/06/06 01:03:09;;;;;;;18.10;5.50;;;;;;;;;;5032634;28;20049;-83
2022/06/06 01:05:57;;;;;;;17.08;5.43;;;;;;;;;;5029029;28;20045;-83
2022/06/06 01:08:45;;;;;;;15.65;5.72;;;;;;;;;;5039237;28;20037;-84
2022/06/06 01:11:50;;;;;;;14.50;5.15;;;;;;;;;;5054324;28;20041;-83
2022/06/06 01:14:39;;;;;;;15.13;5.47;;;;;;;;;;5054363;28;20036;-79
2022/06/06 01:17:24;;;;;;;17.23;6.32;;;;;;;;;;5061034;28;20053;-80
2022/06/06 01:20:28;;;;;;;19.00;5.32;;;;;;;;;;5054581;28;20053;-79
2022/06/06 01:23:50;;;;;;;16.67;5.45;;;;;;;;;;5054180;28;20040;-79
2022/06/06 01:27:31;;;;;;;12.80;5.28;;;;;;;;;;5054041;28;20041;-80
2022/06/06 01:30:21;;;;;;;12.35;5.18;;;;;;;;;;5054008;28;20041;-80
2022/06/06 01:33:10;;;;;;;19.20;4.90;;;;;;;;;;5054077;28;20040;-80
2022/06/06 01:36:00;;;;;;;18.23;4.93;;;;;;;;;;5054103;28;20033;-79
2022/06/06 01:38:46;;;;;;;12.13;5.05;;;;;;;;;;5053794;28;20406;-79
2022/06/06 01:41:38;;;;;;;14.18;5.10;;;;;;;;;;5053750;28;20048;-80
2022/06/06 01:44:40;;;;;;;18.20;4.85;;;;;;;;;;5053759;28;20490;-79
2022/06/06 01:47:42;;;;;;;12.82;4.85;;;;;;;;;;5053847;28;20394;-79
2022/06/06 01:50:27;;;;;;;14.93;5.35;;;;;;;;;;5053291;28;20475;-80
2022/06/06 01:53:15;;;;;;;11.23;4.82;;;;;;;;;;5053855;28;20053;-80
2022/06/06 01:56:02;;;;;;;17.63;5.38;;;;;;;;;;5053576;28;20044;-79
2022/06/06 01:58:48;;;;;;;19.92;4.82;;;;;;;;;;5054124;28;20037;-80
2022/06/06 02:01:33;;;;;;;17.55;4.80;;;;;;;;;;5053489;28;20044;-80
2022/06/06 02:04:19;;;;;;;16.55;5.25;;;;;;;;;;5053369;28;20045;-82
2022/06/06 02:07:06;;;;;;;14.95;4.55;;;;;;;;;;5053670;28;20049;-81
2022/06/06 02:09:51;;;;;;;14.75;5.10;;;;;;;;;;5057244;28;20041;-81
2022/06/06 02:12:39;;;;;;;18.08;4.82;;;;;;;;;;5057776;28;20041;-81
2022/06/06 02:15:25;;;;;;;25.50;5.63;;;;;;;;;;5057750;28;20041;-82
2022/06/06 02:18:11;;;;;;;15.98;5.78;;;;;;;;;;5057644;28;20402;-82
2022/06/06 02:20:56;;;;;;;15.00;6.00;;;;;;;;;;5057346;28;20487;-81
2022/06/06 02:23:43;;;;;;;15.13;5.57;;;;;;;;;;5057215;28;20049;-81
2022/06/06 02:26:28;;;;;;;19.73;6.60;;;;;;;;;;5057853;28;20037;-81
2022/06/06 02:29:14;;;;;;;23.15;5.88;;;;;;;;;;5057180;28;20049;-82
2022/06/06 02:31:59;;;;;;;16.10;5.55;;;;;;;;;;5057392;28;20400;-82
2022/06/06 02:34:45;;;;;;;18.08;5.45;;;;;;;;;;5049009;28;20048;-81
2022/06/06 02:37:29;;;;;;;13.25;5.50;;;;;;;;;;5063500;28;20483;-82
2022/06/06 02:40:18;;;;;;;17.67;6.30;;;;;;;;;;5057050;28;20045;-81
2022/06/06 02:43:04;;;;;;;20.00;5.40;;;;;;;;;;5057047;28;20045;-79
2022/06/06 02:45:50;;;;;;;21.13;5.03;;;;;;;;;;5056894;28;20037;-79
2022/06/06 02:48:35;;;;;;;14.45;4.15;;;;;;;;;;5064038;28;20391;-79
2022/06/06 02:51:21;;;;;;;14.38;4.45;;;;;;;;;;5057088;28;20041;-79
2022/06/06 02:54:06;;;;;;;13.40;4.13;;;;;;;;;;5056858;28;20037;-80
2022/06/06 02:56:52;;;;;;;14.55;5.03;;;;;;;;;;5057026;28;20037;-79
2022/06/06 02:59:38;;;;;;;9.68;4.10;;;;;;;;;;5056782;28;20037;-78
2022/06/06 03:02:24;;;;;;;11.98;3.80;;;;;;;;;;5057100;28;20045;-80
2022/06/06 03:05:09;;;;;;;16.55;4.47;;;;;;;;;;5056709;28;20041;-79
2022/06/06 03:08:23;;;;;;;14.07;4.18;;;;;;;;;;5063130;28;20040;-80
2022/06/06 03:11:26;;;;;;;11.10;4.57;;;;;;;;;;5056791;28;20459;-81
2022/06/06 03:14:17;;;;;;;17.25;4.90;;;;;;;;;;5056418;28;20044;-82
2022/06/06 03:20:57;;;;;;;15.07;5.20;;;;;;;;;;5055979;28;20045;-82
2022/06/06 03:23:41;;;;;;;15.23;4.90;;;;;;;;;;5062580;28;20489;-81
2022/06/06 03:26:53;;;;;;;12.25;4.35;;;;;;;;;;5056236;28;20049;-81
2022/06/06 03:30:00;;;;;;;12.10;4.18;;;;;;;;;;5056412;28;20049;-81
2022/06/06 03:33:11;;;;;;;15.93;4.22;;;;;;;;;;5056296;28;20045;-81
2022/06/06 03:36:27;;;;;;;14.93;4.30;;;;;;;;;;5062563;28;20045;-80
2022/06/06 03:39:13;;;;;;;15.90;4.57;;;;;;;;;;5031323;28;20056;-80
2022/06/06 03:41:58;;;;;;;11.07;3.72;;;;;;;;;;5055854;28;20041;-80
2022/06/06 03:45:21;;;;;;;17.88;3.80;;;;;;;;;;5055826;28;20045;-80
2022/06/06 03:48:17;;;;;;;12.85;4.13;;;;;;;;;;4955723;29;20464;-79
2022/06/06 03:51:05;;;;;;;12.80;3.65;;;;;;;;;;4955605;29;20043;-79
2022/06/06 03:54:11;;;;;;;10.55;4.07;;;;;;;;;;5050440;28;20040;-81
2022/06/06 03:57:17;;;;;;;12.85;3.90;;;;;;;;;;5054976;28;20045;-81
2022/06/06 04:00:11;;;;;;;;;;;;;;;;;;5055740;28;20056;-80
2022/06/06 04:03:03;;;;;;;14.88;4.40;;;;;;;;;;5055068;28;19917;-79
2022/06/06 04:05:48;;;;;;;16.23;3.85;;;;;;;;;;5055445;28;20416;-79
2022/06/06 04:08:34;;;;;;;9.63;3.80;;;;;;;;;;5055220;28;20037;-79
2022/06/06 04:11:29;;;;;;;12.10;3.75;;;;;;;;;;5054858;28;20049;-80
2022/06/06 04:14:44;;;;;;;17.27;4.45;;;;;;;;;;5055543;28;20045;-79
2022/06/06 04:17:41;;;;;;;;;;;;;;;;;;5055595;28;20044;-79
2022/06/06 04:20:46;;;;;;;12.50;3.92;;;;;;;;;;5055095;28;19917;-79
2022/06/06 04:23:43;;;;;;;12.95;3.30;;;;;;;;;;5054281;28;20044;-77
2022/06/06 04:26:43;;;;;;;17.48;4.70;;;;;;;;;;5054484;28;20045;-79
2022/06/06 04:29:47;;;;;;;17.13;4.90;;;;;;;;;;5054678;28;20390;-82
2022/06/06 04:32:46;;;;;;;14.70;5.30;;;;;;;;;;5054517;28;20486;-82
2022/06/06 04:35:47;;;;;;;18.00;5.18;;;;;;;;;;5054931;28;20037;-82
2022/06/06 04:38:36;;;;;;;22.60;5.28;;;;;;;;;;5046380;28;20052;-82
2022/06/06 04:41:44;;;;;;;21.65;5.05;;;;;;;;;;5054993;28;20482;-81
2022/06/06 04:44:42;;;;;;;16.58;4.47;;;;;;;;;;5054688;28;20049;-80
2022/06/06 04:47:27;;;;;;;12.35;5.03;;;;;;;;;;5053995;28;20041;-82
2022/06/06 04:50:16;;;;;;;18.40;4.45;;;;;;;;;;5053925;28;20048;-80
2022/06/06 04:53:07;;;;;;;14.45;4.88;;;;;;;;;;5061428;28;20044;-80
2022/06/06 04:55:54;;;;;;;16.33;4.65;;;;;;;;;;5054595;28;20040;-80
2022/06/06 04:58:40;;;;;;;16.48;4.47;;;;;;;;;;5054262;28;20048;-82
2022/06/06 05:01:26;;;;;;;15.63;4.47;;;;;;;;;;5054451;28;20049;-80
2022/06/06 05:04:12;;;;;;;16.20;4.20;;;;;;;;;;5053994;28;20041;-81
2022/06/06 05:07:19;;;;;;;19.83;4.95;;;;;;;;;;5054035;28;20049;-80
2022/06/06 05:10:23;;;;;;;17.48;4.00;;;;;;;;;;5054606;28;20049;-82
2022/06/06 05:13:36;;;;;;;15.00;4.43;;;;;;;;;;5052040;28;20045;-81
2022/06/06 05:17:04;;;;;;;15.95;4.85;;;;;;;;;;5053281;28;20060;-77
2022/06/06 05:20:07;;;;;;;18.13;4.60;;;;;;;;;;5052632;28;20056;-76
2022/06/06 05:23:20;;;;;;;16.15;4.55;;;;;;;;;;5054220;28;20416;-76
2022/06/06 05:26:41;;;;;;;10.23;3.90;;;;;;;;;;5053886;28;20044;-76
2022/06/06 05:29:42;;;;;;;19.90;4.60;;;;;;;;;;5054067;28;20041;-77
2022/06/06 05:32:53;;;;;;;21.77;5.80;;;;;;;;;;5053970;28;20037;-77
2022/06/06 05:36:08;;;;;;;18.75;5.20;;;;;;;;;;5060657;28;20044;-77
2022/06/06 05:39:03;;;;;;;;;;;;;;;;;;5054356;28;20498;-77
2022/06/06 05:42:08;;;;;;;18.50;5.15;;;;;;;;;;5053532;28;19917;-77
2022/06/06 05:45:09;;;;;;;17.92;5.07;;;;;;;;;;5060540;28;20045;-76
2022/06/06 05:48:03;;;;;;;17.63;5.25;;;;;;;;;;5053618;28;20037;-77
2022/06/06 05:51:08;;;;;;;16.35;4.95;;;;;;;;;;5053453;28;20402;-77
2022/06/06 05:54:12;;;;;;;17.98;4.57;;;;;;;;;;5053713;28;20041;-78
2022/06/06 05:57:14;;;;;;;17.55;4.28;;;;;;;;;;5053834;28;20045;-77
2022/06/06 06:00:04;;;;;;;15.07;5.07;;;;;;;;;;5053817;28;20049;-77
2022/06/06 06:03:03;;;;;;;17.40;4.75;;;;;;;;;;5059830;28;20049;-76
2022/06/06 06:06:21;;;;;;;14.05;4.43;;;;;;;;;;5053226;28;20049;-78
2022/06/06 06:09:15;;;;;;;17.80;5.00;;;;;;;;;;5059951;28;20395;-77
2022/06/06 06:12:43;;;;;;;13.10;4.82;;;;;;;;;;5053630;28;20042;-76
2022/06/06 06:15:33;;;;;;;19.45;5.07;;;;;;;;;;4953329;29;20063;-77
2022/06/06 06:18:52;;;;;;;18.25;4.72;;;;;;;;;;5047170;28;20052;-76
2022/06/06 06:21:43;;;;;;;15.88;4.70;;;;;;;;;;5021156;28;20045;-77
2022/06/06 06:24:36;;;;;;;22.48;4.78;;;;;;;;;;5053388;28;20479;-77
2022/06/06 06:27:23;;;;;;;13.27;4.65;;;;;;;;;;5053305;28;20037;-79
2022/06/06 06:30:10;;;;;;;11.95;4.30;;;;;;;;;;5052966;28;20036;-78
2022/06/06 06:33:08;;;;;;;13.25;3.92;;;;;;;;;;5059942;28;20451;-79
2022/06/06 06:36:27;;;;;;;20.55;5.30;;;;;;;;;;5053640;28;20057;-78
2022/06/06 06:39:21;;;;;;;12.65;4.80;;;;;;;;;;5038171;28;20498;-78
2022/06/06 06:42:30;;;;;;;16.33;4.22;;;;;;;;;;5053113;28;20045;-78
2022/06/06 06:45:37;;;;;;;17.00;4.47;;;;;;;;;;5059858;28;20049;-78
2022/06/06 06:52:18;;;;;;;18.13;4.43;;;;;;;;;;5052770;28;20490;-78
2022/06/06 06:55:41;;;;;;;16.77;4.53;;;;;;;;;;5055581;28;20049;-76
2022/06/06 06:58:52;;;;;;;15.05;4.60;;;;;;;;;;5055045;28;20045;-79
2022/06/06 07:08:32;;;;;;;13.45;4.75;;;;;;;;;;5056304;28;20053;-78
2022/06/06 07:08:43;;;;;;;14.60;4.40;;;;;;;;;;5063295;28;20041;-78
2022/06/06 07:11:46;;;;;;;14.45;4.32;;;;;;;;;;5047741;28;20040;-79
2022/06/06 07:14:46;;;;;;;11.20;3.90;;;;;;;;;;5063100;28;20044;-77
2022/06/06 07:17:37;;;;;;;14.05;4.38;;;;;;;;;;5056431;28;20400;-79
2022/06/06 07:20:22;;;;;;;12.07;3.83;;;;;;;;;;5056664;28;20049;-77
2022/06/06 07:23:11;;;;;;;13.43;3.90;;;;;;;;;;5056020;28;20045;-79
2022/06/06 07:25:59;;;;;;;13.63;3.85;;;;;;;;;;5056265;28;20053;-79
2022/06/06 07:28:44;;;;;;;13.75;4.10;;;;;;;;;;5056000;28;20398;-78
2022/06/06 07:32:01;;;;;;;15.27;4.10;;;;;;;;;;5055749;28;20037;-78
2022/06/06 07:34:58;;;;;;;21.40;6.38;;;;;;;;;;5056106;28;20048;-76
2022/06/06 07:37:51;;;;;;;22.67;4.00;;;;;;;;;;5055821;28;20044;-76
2022/06/06 07:40:56;;;;;;;11.15;4.30;;;;;;;;;;5062291;28;20120;-76
2022/06/06 07:44:20;;;;;;;14.20;3.90;;;;;;;;;;5055260;28;20049;-76
2022/06/06 07:47:47;;;;;;;18.15;4.35;;;;;;;;;;5055653;28;20052;-76
2022/06/06 07:50:47;;;;;;;15.25;4.05;;;;;;;;;;4990323;28;20392;-75
2022/06/06 07:53:40;;;;;;;11.95;4.03;;;;;;;;;;5051838;28;20045;-76
2022/06/06 07:57:01;;;;;;;17.92;4.50;;;;;;;;;;5055495;28;20048;-75
2022/06/06 08:00:08;;;;;;;16.77;4.40;;;;;;;;;;5055317;28;20482;-77
2022/06/06 08:03:26;;;;;;;15.85;4.13;;;;;;;;;;5055375;28;20045;-77
2022/06/06 08:06:18;;;;;;;13.95;3.90;;;;;;;;;;5057905;28;20514;-77
2022/06/06 08:09:22;;;;;;;16.35;3.78;;;;;;;;;;5055232;28;20052;-75
2022/06/06 08:12:08;;;;;;;12.38;3.92;;;;;;;;;;5054930;28;20041;-75
2022/06/06 08:15:04;;;;;;;17.17;4.32;;;;;;;;;;5046788;28;20041;-76
2022/06/06 08:17:58;;;;;;;21.38;4.72;;;;;;;;;;5055233;28;20045;-76
2022/06/06 08:20:59;;;;;;;19.25;4.60;;;;;;;;;;5054995;28;20053;-76
2022/06/06 08:23:45;;;;;;;19.48;4.82;;;;;;;;;;5055357;28;20052;-75
2022/06/06 08:26:36;;;;;;;14.23;4.55;;;;;;;;;;5055206;28;20394;-76
2022/06/06 08:29:25;;;;;;;14.70;4.43;;;;;;;;;;5054803;28;20045;-76
2022/06/06 08:32:11;;;;;;;15.93;4.35;;;;;;;;;;5061377;28;20045;-76
2022/06/06 08:34:57;;;;;;;17.67;5.10;;;;;;;;;;5055359;28;20049;-78
2022/06/06 08:38:20;;;;;;;17.67;4.45;;;;;;;;;;5054719;28;20398;-77
2022/06/06 08:41:36;;;;;;;16.40;5.05;;;;;;;;;;5052683;28;20052;-76
2022/06/06 08:44:28;;;;;;;25.20;5.07;;;;;;;;;;5061266;28;20041;-76
2022/06/06 08:47:30;;;;;;;20.20;4.97;;;;;;;;;;5054655;28;20037;-76
2022/06/06 08:51:13;;;;;;;14.40;4.47;;;;;;;;;;5060986;28;20394;-79
2022/06/06 08:54:24;;;;;;;16.98;5.10;;;;;;;;;;4954508;29;20050;-79
2022/06/06 08:57:25;;;;;;;18.80;4.47;;;;;;;;;;4954208;28;20047;-80
2022/06/06 09:00:33;;;;;;;17.20;4.30;;;;;;;;;;5047796;28;20045;-81
2022/06/06 09:03:22;;;;;;;16.77;4.75;;;;;;;;;;5054323;28;20048;-81
2022/06/06 09:06:22;;;;;;;23.42;4.38;;;;;;;;;;5053998;28;20057;-80
2022/06/06 09:09:31;;;;;;;13.43;4.00;;;;;;;;;;5054354;28;20037;-80
2022/06/06 09:12:53;;;;;;;16.80;4.10;;;;;;;;;;5009535;28;20041;-80
2022/06/06 09:15:48;;;;;;;15.50;4.35;;;;;;;;;;5054066;28;20049;-80
2022/06/06 09:18:56;;;;;;;19.92;4.30;;;;;;;;;;5052937;28;20147;-81
2022/06/06 09:21:56;;;;;;;24.42;4.22;;;;;;;;;;5053990;28;20049;-80
2022/06/06 09:24:54;;;;;;;20.30;4.72;;;;;;;;;;5053915;28;20144;-80
2022/06/06 09:28:09;;;;;;;13.63;3.90;;;;;;;;;;5054029;28;20044;-79
2022/06/06 09:31:01;;;;;;;;;;;;;;;;;;5054280;28;20056;-81
2022/06/06 09:34:12;;;;;;;21.70;4.57;;;;;;;;;;5053118;28;20282;-80
2022/06/06 09:37:01;;;;;;;17.45;4.40;;;;;;;;;;5051549;28;20048;-80
2022/06/06 09:40:17;;;;;;;21.80;4.40;;;;;;;;;;5051429;28;20057;-80
2022/06/06 09:43:13;;;;;;;16.48;4.28;;;;;;;;;;5051380;28;20041;-79
2022/06/06 09:46:16;;;;;;;16.60;4.40;;;;;;;;;;5051467;28;20498;-79
2022/06/06 09:49:17;;;;;;;19.92;4.20;;;;;;;;;;5053390;28;20049;-80
2022/06/06 09:52:37;;;;;;;25.55;4.95;;;;;;;;;;5053283;28;20478;-79
2022/06/06 09:59:05;;;;;;;18.10;4.75;;;;;;;;;;5052969;28;20398;-79
2022/06/06 10:02:18;;;;;;;16.90;4.43;;;;;;;;;;5059906;28;20045;-79
2022/06/06 10:05:48;;;;;;;33.28;4.65;;;;;;;;;;5053432;28;20045;-80
2022/06/06 10:08:51;;;;;;;18.50;4.45;;;;;;;;;;5053471;28;20498;-80
2022/06/06 10:12:01;;;;;;;15.43;4.22;;;;;;;;;;5053400;28;20045;-85
2022/06/06 10:15:17;;;;;;;19.85;4.43;;;;;;;;;;5054655;28;20041;-78
2022/06/06 10:18:27;;;;;;;18.42;4.20;;;;;;;;;;5054276;28;20418;-78
2022/06/06 10:21:56;;;;;;;10.13;4.03;;;;;;;;;;5059758;28;20036;-80
2022/06/06 10:25:00;;;;;;;13.93;4.07;;;;;;;;;;5053452;28;20049;-78
2022/06/06 10:28:31;;;;;;;11.82;4.40;;;;;;;;;;5053145;28;20049;-79
2022/06/06 10:31:56;;;;;;;18.13;4.65;;;;;;;;;;5032493;28;20045;-78
2022/06/06 10:35:16;;;;;;;16.80;4.38;;;;;;;;;;4992211;28;20049;-77
2022/06/06 10:38:47;;;;;;;18.35;4.45;;;;;;;;;;5042160;28;20041;-80
2022/06/06 10:42:02;;;;;;;19.15;4.30;;;;;;;;;;5036171;28;20482;-77
2022/06/06 10:45:20;;;;;;;15.50;4.38;;;;;;;;;;5057325;28;20052;-78
2022/06/06 10:48:20;;;;;;;14.38;4.10;;;;;;;;;;5063729;28;20045;-79
2022/06/06 10:51:42;;;;;;;15.65;4.18;;;;;;;;;;5057208;28;20045;-79
2022/06/06 10:54:34;;;;;;;10.65;3.85;;;;;;;;;;5057228;28;20057;-80
2022/06/06 10:57:37;;;;;;;12.13;3.92;;;;;;;;;;5056983;28;20486;-83
2022/06/06 11:00:50;;;;;;;20.37;5.27;;;;;;;;;;5056988;28;20052;-82
2022/06/06 11:03:54;;;;;;;24.92;6.00;;;;;;;;;;5056736;28;20266;-82
2022/06/06 11:07:01;;;;;;;24.42;6.47;;;;;;;;;;5056192;28;20398;-80
2022/06/06 11:10:11;;;;;;;17.92;5.70;;;;;;;;;;5056454;28;20041;-78
2022/06/06 11:13:27;;;;;;;16.67;6.28;;;;;;;;;;5055684;28;20402;-77
2022/06/06 11:16:50;;;;;;;22.38;6.18;;;;;;;;;;5057235;28;20045;-77
2022/06/06 11:20:11;;;;;;;20.20;6.70;;;;;;;;;;5057489;28;20041;-79
2022/06/06 11:23:10;;;;;;;24.30;6.40;;;;;;;;;;5057794;28;20057;-79
2022/06/06 11:26:07;;;;;;;17.67;6.40;;;;;;;;;;5058848;28;20048;-78
2022/06/06 11:29:10;;;;;;;20.63;7.32;;;;;;;;;;5059126;28;20049;-79
2022/06/06 11:32:44;;;;;;;19.25;7.70;;;;;;;;;;5057958;28;20060;-78
2022/06/06 11:35:47;;;;;;;11.32;4.65;;;;;;;;;;5055871;28;20045;-80
2022/06/06 11:39:06;;;;;;;8.02;4.05;;;;;;;;;;5055385;28;20045;-80
2022/06/06 11:42:33;;;;;;;6.13;3.05;;;;;;;;;;5055447;28;20053;-80
2022/06/06 11:45:18;;;;;;;6.63;2.47;;;;;;;;;;5055902;28;20048;-80
2022/06/06 11:48:47;;;;;;;11.80;3.70;;;;;;;;;;5055691;28;20049;-80
2022/06/06 11:52:05;;;;;;;7.25;2.67;;;;;;;;;;5055842;28;20479;-79
2022/06/06 11:55:20;;;;;;;9.82;3.13;;;;;;;;;;5055041;28;20433;-82
2022/06/06 11:58:39;;;;;;;18.45;7.32;;;;;;;;;;5054649;28;20045;-81
2022/06/06 12:01:28;;;;;;;9.98;3.00;;;;;;;;;;5055676;28;20045;-82
2022/06/06 12:04:29;;;;;;;8.20;2.40;;;;;;;;;;5055523;28;20041;-83
2022/06/06 12:07:39;;;;;;;6.40;2.15;;;;;;;;;;5054658;28;20049;-83
2022/06/06 12:10:30;;;;;;;6.82;2.42;;;;;;;;;;5055453;28;20414;-85
2022/06/06 12:13:35;;;;;;;5.57;2.30;;;;;;;;;;5054301;28;20510;-85
2022/06/06 12:16:31;;;;;;;8.00;2.33;;;;;;;;;;5055188;28;20048;-83
2022/06/06 12:19:42;;;;;;;8.95;2.58;;;;;;;;;;5055513;28;20049;-83
2022/06/06 12:23:08;;;;;;;5.38;2.38;;;;;;;;;;5015623;28;20040;-84
2022/06/06 12:26:17;;;;;;;5.90;2.28;;;;;;;;;;5028336;28;20048;-83
2022/06/06 12:29:21;;;;;;;8.25;3.55;;;;;;;;;;5055316;28;20470;-82
2022/06/06 12:32:06;;;;;;;8.90;2.55;;;;;;;;;;5054920;28;20037;-81
2022/06/06 12:35:16;;;;;;;11.05;3.88;;;;;;;;;;5045066;28;20049;-80
2022/06/06 12:38:29;;;;;;;14.10;3.90;;;;;;;;;;5054878;28;20049;-82
2022/06/06 12:41:55;;;;;;;6.75;2.85;;;;;;;;;;5054611;28;20045;-83
2022/06/06 12:44:54;;;;;;;9.48;3.60;;;;;;;;;;5039462;28;20048;-80
2022/06/06 12:48:11;;;;;;;10.60;4.60;;;;;;;;;;5054774;28;20037;-82
2022/06/06 12:51:23;;;;;;;8.77;4.10;;;;;;;;;;5054636;28;20045;-80
2022/06/06 12:55:26;;;;;;;7.10;3.42;;;;;;;;;;5045900;28;20040;-87
2022/06/06 12:58:27;;;;;;;9.90;3.58;;;;;;;;;;5039220;28;20053;-85
2022/06/06 13:01:37;;;;;;;16.08;3.90;;;;;;;;;;4954304;29;20046;-83
2022/06/06 13:04:49;;;;;;;9.00;3.53;;;;;;;;;;4941344;29;20063;-86
2022/06/06 13:07:46;;;;;;;7.57;3.70;;;;;;;;;;5026889;28;20050;-87
2022/06/06 13:10:34;;;;;;;10.30;4.03;;;;;;;;;;5054438;28;20046;-86
2022/06/06 13:13:53;;;;;;;10.98;4.57;;;;;;;;;;5039296;28;20049;-86
2022/06/06 13:17:06;;;;;;;11.68;5.07;;;;;;;;;;5040099;28;20045;-82
2022/06/06 13:19:58;;;;;;;15.93;4.85;;;;;;;;;;5038675;28;20037;-84
2022/06/06 13:23:15;;;;;;;10.50;5.90;;;;;;;;;;5038933;28;20048;-84
2022/06/06 13:26:16;;;;;;;11.73;5.25;;;;;;;;;;5060913;28;20045;-84
2022/06/06 13:29:04;;;;;;;7.68;4.80;;;;;;;;;;5053198;28;20056;-84
2022/06/06 13:32:18;;;;;;;7.60;4.38;;;;;;;;;;5053476;28;20410;-86
2022/06/06 13:35:06;;;;;;;11.02;4.80;;;;;;;;;;5045676;28;20049;-81
2022/06/06 13:37:55;;;;;;;15.70;4.78;;;;;;;;;;5053868;28;20041;-82
2022/06/06 13:40:49;;;;;;;8.63;4.13;;;;;;;;;;5054356;28;20482;-86
2022/06/06 13:43:54;;;;;;;11.27;4.10;;;;;;;;;;5054254;28;20044;-85
2022/06/06 13:47:14;;;;;;;4.38;3.60;;;;;;;;;;5044579;28;20037;-84
2022/06/06 13:50:17;;;;;;;7.75;4.57;;;;;;;;;;5045146;28;20056;-86
2022/06/06 13:53:24;;;;;;;6.10;4.20;;;;;;;;;;5053437;28;20049;-87
2022/06/06 13:56:32;;;;;;;8.07;4.68;;;;;;;;;;5045020;28;20041;-87
2022/06/06 13:59:52;;;;;;;9.85;4.95;;;;;;;;;;5045244;28;20045;-87
2022/06/06 14:02:38;;;;;;;10.70;4.72;;;;;;;;;;5053661;28;20496;-83
2022/06/06 14:05:29;;;;;;;8.07;4.00;;;;;;;;;;5045192;28;20033;-83
2022/06/06 14:08:20;;;;;;;10.02;4.20;;;;;;;;;;5060007;28;20053;-83
2022/06/06 14:11:10;;;;;;;8.43;4.10;;;;;;;;;;5060234;28;20052;-83
2022/06/06 14:13:59;;;;;;;9.23;4.60;;;;;;;;;;5059687;28;20057;-83
2022/06/06 14:16:58;;;;;;;11.32;4.32;;;;;;;;;;5060349;28;20041;-83
2022/06/06 14:19:48;;;;;;;19.15;12.27;;;;;;;;;;5060458;28;20049;-81
2022/06/06 14:22:37;;;;;;;15.98;9.20;;;;;;;;;;5059522;28;20045;-83
2022/06/06 14:25:22;;;;;;;8.70;5.25;;;;;;;;;;5054309;28;20044;-84
2022/06/06 14:28:24;;;;;;;8.27;4.57;;;;;;;;;;5059478;28;20045;-83
2022/06/06 14:31:34;;;;;;;26.38;12.70;;;;;;;;;;5059816;28;20052;-83
2022/06/06 14:34:44;;;;;;;17.00;7.60;;;;;;;;;;5059726;28;20044;-83
2022/06/06 14:37:33;;;;;;;29.90;15.02;;;;;;;;;;5066719;28;20052;-83
2022/06/06 14:40:40;;;;;;;11.85;6.18;;;;;;;;;;5066419;28;20049;-82
2022/06/06 14:43:30;;;;;;;11.00;5.70;;;;;;;;;;5059944;28;20052;-83
2022/06/06 14:46:16;;;;;;;8.15;4.95;;;;;;;;;;5065295;28;20045;-83
2022/06/06 14:49:02;;;;;;;8.63;4.55;;;;;;;;;;5059031;28;20041;-82
2022/06/06 14:51:48;;;;;;;11.95;7.30;;;;;;;;;;5059438;28;20410;-82
2022/06/06 14:54:33;;;;;;;14.00;8.77;;;;;;;;;;5059606;28;20049;-83
2022/06/06 14:57:28;;;;;;;16.88;10.32;;;;;;;;;;5059222;28;20037;-85
2022/06/06 15:00:34;;;;;;;13.70;7.88;;;;;;;;;;5038565;28;20036;-87
2022/06/06 15:03:31;;;;;;;9.90;5.75;;;;;;;;;;5059470;28;20053;-86
2022/06/06 15:06:22;;;;;;;8.48;5.13;;;;;;;;;;5044560;28;20057;-86
2022/06/06 15:09:17;;;;;;;8.55;5.32;;;;;;;;;;5050727;28;20402;-86
2022/06/06 15:12:02;;;;;;;9.98;5.50;;;;;;;;;;5043403;28;20049;-85
2022/06/06 15:14:48;;;;;;;12.45;5.53;;;;;;;;;;5057411;28;20037;-86
2022/06/06 15:17:38;;;;;;;13.15;5.78;;;;;;;;;;5056311;28;20048;-88
2022/06/06 15:20:30;;;;;;;8.48;5.75;;;;;;;;;;5041272;28;20045;-86
2022/06/06 15:23:22;;;;;;;12.50;6.22;;;;;;;;;;5041371;28;20494;-91
2022/06/06 15:26:23;;;;;;;9.18;5.60;;;;;;;;;;5056000;28;20075;-83
2022/06/06 15:29:29;;;;;;;12.63;5.97;;;;;;;;;;5041152;28;20045;-82
2022/06/06 15:32:27;;;;;;;7.82;5.20;;;;;;;;;;5056388;28;20041;-82
2022/06/06 15:35:32;;;;;;;9.35;6.03;;;;;;;;;;5056003;28;20049;-82
2022/06/06 15:38:59;;;;;;;14.35;6.35;;;;;;;;;;5055761;28;20386;-82
2022/06/06 15:42:35;;;;;;;6.50;4.82;;;;;;;;;;5018543;28;20049;-82
2022/06/06 15:45:58;;;;;;;7.10;4.35;;;;;;;;;;4957371;28;20047;-83
2022/06/06 15:49:22;;;;;;;8.40;5.05;;;;;;;;;;5053141;28;20430;-82
2022/06/06 15:52:27;;;;;;;9.65;5.32;;;;;;;;;;5053241;28;20049;-82
2022/06/06 15:55:39;;;;;;;9.77;5.60;;;;;;;;;;5053419;28;20045;-83
2022/06/06 15:58:44;;;;;;;11.30;6.93;;;;;;;;;;5053440;28;20049;-82
2022/06/06 16:01:49;;;;;;;19.77;14.32;;;;;;;;;;5053249;28;20398;-82
2022/06/06 16:04:40;;;;;;;26.88;20.08;;;;;;;;;;5055513;28;20040;-82
2022/06/06 16:07:56;;;;;;;22.73;17.95;;;;;;;;;;5055330;28;20041;-82
2022/06/06 16:11:07;;;;;;;17.40;9.73;;;;;;;;;;5055211;28;20040;-82
2022/06/06 16:13:57;;;;;;;11.10;6.68;;;;;;;;;;5062050;28;20040;-82
2022/06/06 16:16:49;;;;;;;11.70;6.60;;;;;;;;;;5061761;28;20386;-82
2022/06/06 16:19:46;;;;;;;9.23;6.47;;;;;;;;;;5054778;28;20057;-80
2022/06/06 16:22:39;;;;;;;13.68;7.32;;;;;;;;;;5055233;28;20041;-83
2022/06/06 16:25:30;;;;;;;14.02;7.40;;;;;;;;;;5054753;28;20506;-83
2022/06/06 16:28:27;;;;;;;11.45;6.90;;;;;;;;;;5053896;28;20057;-82
2022/06/06 16:31:28;;;;;;;10.32;6.45;;;;;;;;;;5055161;28;20061;-82
2022/06/06 16:34:20;;;;;;;9.15;5.90;;;;;;;;;;5054711;28;20041;-82
2022/06/06 16:37:14;;;;;;;13.23;6.63;;;;;;;;;;5055040;28;20045;-82
2022/06/06 16:39:59;;;;;;;11.52;6.60;;;;;;;;;;5061513;28;20049;-83
2022/06/06 16:49:09;;;;;;;10.77;6.55;;;;;;;;;;5054435;28;20049;-83
2022/06/06 16:52:19;;;;;;;9.95;6.30;;;;;;;;;;5054562;28;20049;-82
2022/06/06 16:55:35;;;;;;;10.80;6.75;;;;;;;;;;5054758;28;20048;-83
2022/06/06 16:58:39;;;;;;;7.63;5.68;;;;;;;;;;5053821;28;20049;-83
2022/06/06 17:01:36;;;;;;;11.10;6.20;;;;;;;;;;5053911;28;20049;-83
2022/06/06 17:04:24;;;;;;;11.65;6.85;;;;;;;;;;5053838;28;20044;-83
2022/06/06 17:10:30;;;;;;;7.95;5.68;;;;;;;;;;5054261;28;20045;-83
2022/06/06 17:13:37;;;;;;;10.45;6.30;;;;;;;;;;5053755;28;20041;-84
2022/06/06 17:16:36;;;;;;;9.55;6.55;;;;;;;;;;5054027;28;20041;-83
2022/06/06 17:19:36;;;;;;;12.18;6.70;;;;;;;;;;5053583;28;20041;-84
2022/06/06 17:22:30;;;;;;;14.38;6.43;;;;;;;;;;5048473;28;20399;-83
2022/06/06 17:25:38;;;;;;;11.90;6.00;;;;;;;;;;5054049;28;20045;-84
2022/06/06 17:28:27;;;;;;;8.35;5.28;;;;;;;;;;5053974;28;20045;-81
2022/06/06 17:31:50;;;;;;;10.52;5.78;;;;;;;;;;5054265;28;20045;-82
2022/06/06 17:34:38;;;;;;;12.23;5.40;;;;;;;;;;5054005;28;20053;-82
2022/06/06 17:37:45;;;;;;;11.85;6.22;;;;;;;;;;5053759;28;20041;-86
2022/06/06 17:40:40;;;;;;;9.77;6.50;;;;;;;;;;5053851;28;20048;-83
2022/06/06 17:43:37;;;;;;;22.23;13.02;;;;;;;;;;5054035;28;20075;-83
2022/06/06 17:46:30;;;;;;;13.35;6.95;;;;;;;;;;5053591;28;20041;-82
2022/06/06 17:49:18;;;;;;;12.32;7.05;;;;;;;;;;5053669;28;20498;-83
2022/06/06 17:52:31;;;;;;;36.35;22.48;;;;;;;;;;5053521;28;20045;-82
2022/06/06 17:55:29;;;;;;;22.83;14.15;;;;;;;;;;5053726;28;20490;-83
2022/06/06 17:58:25;;;;;;;18.92;10.38;;;;;;;;;;5053987;28;20041;-81
2022/06/06 18:01:17;;;;;;;12.95;7.60;;;;;;;;;;5053376;28;20044;-82
2022/06/06 18:04:32;;;;;;;13.05;7.78;;;;;;;;;;5044115;28;20041;-82
2022/06/06 18:07:38;;;;;;;12.45;8.60;;;;;;;;;;5044527;28;20487;-82
2022/06/06 18:10:34;;;;;;;12.18;7.32;;;;;;;;;;5052741;28;20053;-83
2022/06/06 18:13:35;;;;;;;10.45;7.35;;;;;;;;;;5053713;28;20053;-83
2022/06/06 18:16:32;;;;;;;11.10;7.53;;;;;;;;;;5058966;28;20041;-83